sensor_id;sensor_type;location;lat;lon;timestamp;temperature;humidity
11264;DHT22;5689;48.798;9.070;2022-10-15T00:01:08;14.30;99.90
11264;DHT22;5689;48.798;9.070;2022-10-15T00:03:39;14.30;99.90
11264;DHT22;5689;48.798;9.070;2022-10-15T00:06:09;14.40;99.90
11264;DHT22;5689;48.798;9.070;2022-10-15T00:08:38;14.30;99.90
11264;DHT22;5689;48.798;9.070;2022-10-15T00:11:09;14.40;99.90
11264;DHT22;5689;48.798;9.070;2022-10-15T00:13:37;14.40;99.90
11264;DHT22;5689;48.798;9.070;2022-10-15T00:16:07;14.40;99.90
11264;DHT22;5689;48.798;9.070;2022-10-15T00:18:37;14.40;99.90
11264;DHT22;5689;48.798;9.070;2022-10-15T00:21:06;14.40;99.90
11264;DHT22;5689;48.798;9.070;2022-10-15T00:23:35;14.40;99.90
11264;DHT22;5689;48.798;9.070;2022-10-15T00:26:05;14.40;99.90
11264;DHT22;5689;48.798;9.070;2022-10-15T00:28:34;14.40;99.90
11264;DHT22;5689;48.798;9.070;2022-10-15T00:31:04;14.50;99.90
11264;DHT22;5689;48.798;9.070;2022-10-15T00:33:33;14.40;99.90
11264;DHT22;5689;48.798;9.070;2022-10-15T00:36:04;14.40;99.90
11264;DHT22;5689;48.798;9.070;2022-10-15T00:38:33;14.50;99.90
11264;DHT22;5689;48.798;9.070;2022-10-15T00:41:03;14.40;99.90
11264;DHT22;5689;48.798;9.070;2022-10-15T00:43:37;14.50;99.90
11264;DHT22;5689;48.798;9.070;2022-10-15T00:46:11;14.50;99.90
11264;DHT22;5689;48.798;9.070;2022-10-15T00:48:43;14.50;99.90
11264;DHT22;5689;48.798;9.070;2022-10-15T00:51:16;14.50;99.90
11264;DHT22;5689;48.798;9.070;2022-10-15T00:53:45;14.50;99.90
11264;DHT22;5689;48.798;9.070;2022-10-15T00:56:15;14.50;99.90
11264;DHT22;5689;48.798;9.070;2022-10-15T00:58:44;14.50;99.90
11264;DHT22;5689;48.798;9.070;2022-10-15T01:01:13;14.60;99.90
11264;DHT22;5689;48.798;9.070;2022-10-15T01:03:41;14.50;99.90
11264;DHT22;5689;48.798;9.070;2022-10-15T01:06:09;14.60;99.90
11264;DHT22;5689;48.798;9.070;2022-10-15T01:08:41;14.60;99.90
11264;DHT22;5689;48.798;9.070;2022-10-15T01:11:21;14.60;99.90
11264;DHT22;5689;48.798;9.070;2022-10-15T01:13:57;14.60;99.90
11264;DHT22;5689;48.798;9.070;2022-10-15T01:16:33;14.60;99.90
11264;DHT22;5689;48.798;9.070;2022-10-15T01:19:06;14.60;99.90
11264;DHT22;5689;48.798;9.070;2022-10-15T01:21:39;14.70;99.90
11264;DHT22;5689;48.798;9.070;2022-10-15T01:24:52;14.70;99.90
11264;DHT22;5689;48.798;9.070;2022-10-15T01:27:31;14.70;99.90
11264;DHT22;5689;48.798;9.070;2022-10-15T01:30:15;14.70;99.90
11264;DHT22;5689;48.798;9.070;2022-10-15T01:32:50;14.70;99.90
11264;DHT22;5689;48.798;9.070;2022-10-15T01:35:27;14.70;99.90
11264;DHT22;5689;48.798;9.070;2022-10-15T01:38:03;14.70;99.90
11264;DHT22;5689;48.798;9.070;2022-10-15T01:40:39;14.70;99.90
11264;DHT22;5689;48.798;9.070;2022-10-15T01:43:12;14.70;99.90
11264;DHT22;5689;48.798;9.070;2022-10-15T01:46:06;14.80;99.90
11264;DHT22;5689;48.798;9.070;2022-10-15T01:48:42;14.70;99.90
11264;DHT22;5689;48.798;9.070;2022-10-15T01:51:12;14.80;99.90
11264;DHT22;5689;48.798;9.070;2022-10-15T01:53:43;14.80;99.90
11264;DHT22;5689;48.798;9.070;2022-10-15T01:56:16;14.70;99.90
11264;DHT22;5689;48.798;9.070;2022-10-15T01:58:46;14.70;99.90
11264;DHT22;5689;48.798;9.070;2022-10-15T02:01:17;14.70;99.90
11264;DHT22;5689;48.798;9.070;2022-10-15T02:03:47;14.70;99.90
11264;DHT22;5689;48.798;9.070;2022-10-15T02:06:20;14.70;99.90
11264;DHT22;5689;48.798;9.070;2022-10-15T02:09:12;14.70;99.90
11264;DHT22;5689;48.798;9.070;2022-10-15T02:11:50;14.80;99.90
11264;DHT22;5689;48.798;9.070;2022-10-15T02:14:26;14.80;99.90
11264;DHT22;5689;48.798;9.070;2022-10-15T02:17:03;14.70;99.90
11264;DHT22;5689;48.798;9.070;2022-10-15T02:19:40;14.70;99.90
11264;DHT22;5689;48.798;9.070;2022-10-15T02:22:13;14.70;99.90
11264;DHT22;5689;48.798;9.070;2022-10-15T02:24:49;14.70;99.90
11264;DHT22;5689;48.798;9.070;2022-10-15T02:27:19;14.80;99.90
11264;DHT22;5689;48.798;9.070;2022-10-15T02:29:49;14.70;99.90
11264;DHT22;5689;48.798;9.070;2022-10-15T02:32:20;14.70;99.90
11264;DHT22;5689;48.798;9.070;2022-10-15T02:34:50;14.80;99.90
11264;DHT22;5689;48.798;9.070;2022-10-15T02:37:21;14.80;99.90
11264;DHT22;5689;48.798;9.070;2022-10-15T02:39:50;14.80;99.90
11264;DHT22;5689;48.798;9.070;2022-10-15T02:42:18;14.80;99.90
11264;DHT22;5689;48.798;9.070;2022-10-15T02:44:47;14.80;99.90
11264;DHT22;5689;48.798;9.070;2022-10-15T02:47:15;14.80;99.90
11264;DHT22;5689;48.798;9.070;2022-10-15T02:49:44;14.80;99.90
11264;DHT22;5689;48.798;9.070;2022-10-15T02:52:13;14.80;99.90
11264;DHT22;5689;48.798;9.070;2022-10-15T02:54:41;14.80;99.90
11264;DHT22;5689;48.798;9.070;2022-10-15T02:57:09;14.80;99.90
11264;DHT22;5689;48.798;9.070;2022-10-15T02:59:40;14.80;99.90
11264;DHT22;5689;48.798;9.070;2022-10-15T03:02:08;14.80;99.90
11264;DHT22;5689;48.798;9.070;2022-10-15T03:04:39;14.80;99.90
11264;DHT22;5689;48.798;9.070;2022-10-15T03:07:09;14.90;99.90
11264;DHT22;5689;48.798;9.070;2022-10-15T03:09:37;14.90;99.90
11264;DHT22;5689;48.798;9.070;2022-10-15T03:12:06;15.00;99.90
11264;DHT22;5689;48.798;9.070;2022-10-15T03:14:34;15.00;99.90
11264;DHT22;5689;48.798;9.070;2022-10-15T03:17:02;15.00;99.90
11264;DHT22;5689;48.798;9.070;2022-10-15T03:19:30;15.00;99.90
11264;DHT22;5689;48.798;9.070;2022-10-15T03:21:59;15.10;99.90
11264;DHT22;5689;48.798;9.070;2022-10-15T03:24:40;15.00;99.90
11264;DHT22;5689;48.798;9.070;2022-10-15T03:27:09;15.00;99.90
11264;DHT22;5689;48.798;9.070;2022-10-15T03:29:38;15.00;99.90
11264;DHT22;5689;48.798;9.070;2022-10-15T03:32:06;15.00;99.90
11264;DHT22;5689;48.798;9.070;2022-10-15T03:34:35;15.10;99.90
11264;DHT22;5689;48.798;9.070;2022-10-15T03:37:03;15.10;99.90
11264;DHT22;5689;48.798;9.070;2022-10-15T03:39:31;15.10;99.90
11264;DHT22;5689;48.798;9.070;2022-10-15T03:42:04;15.20;99.90
11264;DHT22;5689;48.798;9.070;2022-10-15T03:44:43;15.20;99.90
11264;DHT22;5689;48.798;9.070;2022-10-15T03:47:15;15.20;99.90
11264;DHT22;5689;48.798;9.070;2022-10-15T03:49:47;15.20;99.90
11264;DHT22;5689;48.798;9.070;2022-10-15T03:52:15;15.20;99.90
11264;DHT22;5689;48.798;9.070;2022-10-15T03:54:45;15.30;99.90
11264;DHT22;5689;48.798;9.070;2022-10-15T03:57:18;15.30;99.90
11264;DHT22;5689;48.798;9.070;2022-10-15T03:59:54;15.30;99.90
11264;DHT22;5689;48.798;9.070;2022-10-15T04:02:24;15.30;99.90
11264;DHT22;5689;48.798;9.070;2022-10-15T04:04:52;15.30;99.90
11264;DHT22;5689;48.798;9.070;2022-10-15T04:07:21;15.30;99.90
11264;DHT22;5689;48.798;9.070;2022-10-15T04:09:50;15.30;99.90
11264;DHT22;5689;48.798;9.070;2022-10-15T04:12:26;15.30;99.90
11264;DHT22;5689;48.798;9.070;2022-10-15T04:14:55;15.40;99.90
11264;DHT22;5689;48.798;9.070;2022-10-15T04:17:23;15.40;99.90
11264;DHT22;5689;48.798;9.070;2022-10-15T04:19:51;15.40;99.90
11264;DHT22;5689;48.798;9.070;2022-10-15T04:22:20;15.40;99.90
11264;DHT22;5689;48.798;9.070;2022-10-15T04:24:54;15.40;99.90
11264;DHT22;5689;48.798;9.070;2022-10-15T04:27:28;15.40;99.90
11264;DHT22;5689;48.798;9.070;2022-10-15T04:30:06;15.40;99.90
11264;DHT22;5689;48.798;9.070;2022-10-15T04:32:37;15.40;99.90
11264;DHT22;5689;48.798;9.070;2022-10-15T04:35:06;15.40;99.90
11264;DHT22;5689;48.798;9.070;2022-10-15T04:37:49;15.40;99.90
11264;DHT22;5689;48.798;9.070;2022-10-15T04:40:17;15.30;99.90
11264;DHT22;5689;48.798;9.070;2022-10-15T04:42:47;15.40;99.90
11264;DHT22;5689;48.798;9.070;2022-10-15T04:45:15;15.30;99.90
11264;DHT22;5689;48.798;9.070;2022-10-15T04:47:43;15.30;99.90
11264;DHT22;5689;48.798;9.070;2022-10-15T04:50:13;15.30;99.90
11264;DHT22;5689;48.798;9.070;2022-10-15T04:53:00;15.30;99.90
11264;DHT22;5689;48.798;9.070;2022-10-15T04:55:32;15.40;99.90
11264;DHT22;5689;48.798;9.070;2022-10-15T04:58:03;15.40;99.90
11264;DHT22;5689;48.798;9.070;2022-10-15T05:00:31;15.40;99.90
11264;DHT22;5689;48.798;9.070;2022-10-15T05:03:21;15.40;99.90
11264;DHT22;5689;48.798;9.070;2022-10-15T05:06:04;15.40;99.90
11264;DHT22;5689;48.798;9.070;2022-10-15T05:08:33;15.40;99.90
11264;DHT22;5689;48.798;9.070;2022-10-15T05:11:26;15.40;99.90
11264;DHT22;5689;48.798;9.070;2022-10-15T05:13:57;15.40;99.90
11264;DHT22;5689;48.798;9.070;2022-10-15T05:16:28;15.50;99.90
11264;DHT22;5689;48.798;9.070;2022-10-15T05:19:00;15.50;99.90
11264;DHT22;5689;48.798;9.070;2022-10-15T05:21:30;15.50;99.90
11264;DHT22;5689;48.798;9.070;2022-10-15T05:24:01;15.50;99.90
11264;DHT22;5689;48.798;9.070;2022-10-15T05:26:47;15.40;99.90
11264;DHT22;5689;48.798;9.070;2022-10-15T05:29:17;15.40;99.90
11264;DHT22;5689;48.798;9.070;2022-10-15T05:31:45;15.40;99.90
11264;DHT22;5689;48.798;9.070;2022-10-15T05:34:18;15.40;99.90
11264;DHT22;5689;48.798;9.070;2022-10-15T05:36:53;15.40;99.90
11264;DHT22;5689;48.798;9.070;2022-10-15T05:39:21;15.40;99.90
11264;DHT22;5689;48.798;9.070;2022-10-15T05:41:52;15.40;99.90
11264;DHT22;5689;48.798;9.070;2022-10-15T05:44:29;15.40;99.90
11264;DHT22;5689;48.798;9.070;2022-10-15T05:46:58;15.40;99.90
11264;DHT22;5689;48.798;9.070;2022-10-15T05:49:26;15.40;99.90
11264;DHT22;5689;48.798;9.070;2022-10-15T05:52:04;15.40;99.90
11264;DHT22;5689;48.798;9.070;2022-10-15T05:54:51;15.30;99.90
11264;DHT22;5689;48.798;9.070;2022-10-15T05:57:20;15.40;99.90
11264;DHT22;5689;48.798;9.070;2022-10-15T05:59:49;15.40;99.90
11264;DHT22;5689;48.798;9.070;2022-10-15T06:02:17;15.40;99.90
11264;DHT22;5689;48.798;9.070;2022-10-15T06:04:46;15.40;99.90
11264;DHT22;5689;48.798;9.070;2022-10-15T06:07:14;15.40;99.90
11264;DHT22;5689;48.798;9.070;2022-10-15T06:09:42;15.40;99.90
11264;DHT22;5689;48.798;9.070;2022-10-15T06:12:10;15.40;99.90
11264;DHT22;5689;48.798;9.070;2022-10-15T06:14:38;15.50;99.90
11264;DHT22;5689;48.798;9.070;2022-10-15T06:17:08;15.50;99.90
11264;DHT22;5689;48.798;9.070;2022-10-15T06:19:36;15.50;99.90
11264;DHT22;5689;48.798;9.070;2022-10-15T06:22:04;15.50;99.90
11264;DHT22;5689;48.798;9.070;2022-10-15T06:24:32;15.40;99.90
11264;DHT22;5689;48.798;9.070;2022-10-15T06:27:00;15.40;99.90
11264;DHT22;5689;48.798;9.070;2022-10-15T06:29:28;15.40;99.90
11264;DHT22;5689;48.798;9.070;2022-10-15T06:31:59;15.40;99.90
11264;DHT22;5689;48.798;9.070;2022-10-15T06:34:28;15.40;99.90
11264;DHT22;5689;48.798;9.070;2022-10-15T06:36:56;15.30;99.90
11264;DHT22;5689;48.798;9.070;2022-10-15T06:39:24;15.30;99.90
11264;DHT22;5689;48.798;9.070;2022-10-15T06:41:52;15.30;99.90
11264;DHT22;5689;48.798;9.070;2022-10-15T06:44:20;15.30;99.90
11264;DHT22;5689;48.798;9.070;2022-10-15T06:46:48;15.30;99.90
11264;DHT22;5689;48.798;9.070;2022-10-15T06:49:16;15.30;99.90
11264;DHT22;5689;48.798;9.070;2022-10-15T06:51:46;15.30;99.90
11264;DHT22;5689;48.798;9.070;2022-10-15T06:54:14;15.30;99.90
11264;DHT22;5689;48.798;9.070;2022-10-15T06:56:42;15.30;99.90
11264;DHT22;5689;48.798;9.070;2022-10-15T06:59:10;15.40;99.90
11264;DHT22;5689;48.798;9.070;2022-10-15T07:01:38;15.40;99.90
11264;DHT22;5689;48.798;9.070;2022-10-15T07:04:07;15.40;99.90
11264;DHT22;5689;48.798;9.070;2022-10-15T07:06:35;15.50;99.90
11264;DHT22;5689;48.798;9.070;2022-10-15T07:09:04;15.50;99.90
11264;DHT22;5689;48.798;9.070;2022-10-15T07:11:32;15.50;99.90
11264;DHT22;5689;48.798;9.070;2022-10-15T07:14:00;15.50;99.90
11264;DHT22;5689;48.798;9.070;2022-10-15T07:16:28;15.60;99.90
11264;DHT22;5689;48.798;9.070;2022-10-15T07:18:56;15.60;99.90
11264;DHT22;5689;48.798;9.070;2022-10-15T07:21:24;15.60;99.90
11264;DHT22;5689;48.798;9.070;2022-10-15T07:23:52;15.70;99.90
11264;DHT22;5689;48.798;9.070;2022-10-15T07:26:21;15.70;99.90
11264;DHT22;5689;48.798;9.070;2022-10-15T07:28:50;15.80;99.90
11264;DHT22;5689;48.798;9.070;2022-10-15T07:31:18;15.80;99.90
11264;DHT22;5689;48.798;9.070;2022-10-15T07:33:45;15.80;99.90
11264;DHT22;5689;48.798;9.070;2022-10-15T07:36:14;15.90;99.90
11264;DHT22;5689;48.798;9.070;2022-10-15T07:38:42;15.90;99.90
11264;DHT22;5689;48.798;9.070;2022-10-15T07:41:10;16.10;99.90
11264;DHT22;5689;48.798;9.070;2022-10-15T07:43:42;16.10;99.90
11264;DHT22;5689;48.798;9.070;2022-10-15T07:46:11;16.10;99.90
11264;DHT22;5689;48.798;9.070;2022-10-15T07:48:39;16.10;99.90
11264;DHT22;5689;48.798;9.070;2022-10-15T07:51:08;15.90;99.90
11264;DHT22;5689;48.798;9.070;2022-10-15T07:53:37;15.60;99.90
11264;DHT22;5689;48.798;9.070;2022-10-15T07:56:07;15.50;99.90
11264;DHT22;5689;48.798;9.070;2022-10-15T07:58:37;15.40;99.90
11264;DHT22;5689;48.798;9.070;2022-10-15T08:01:08;15.40;99.90
11264;DHT22;5689;48.798;9.070;2022-10-15T08:03:37;15.40;99.90
11264;DHT22;5689;48.798;9.070;2022-10-15T08:06:06;15.40;99.90
11264;DHT22;5689;48.798;9.070;2022-10-15T08:08:35;15.40;99.90
11264;DHT22;5689;48.798;9.070;2022-10-15T08:11:04;15.30;99.90
11264;DHT22;5689;48.798;9.070;2022-10-15T08:13:33;15.30;99.90
11264;DHT22;5689;48.798;9.070;2022-10-15T08:16:01;15.30;99.90
11264;DHT22;5689;48.798;9.070;2022-10-15T08:18:30;15.30;99.90
11264;DHT22;5689;48.798;9.070;2022-10-15T08:20:59;15.40;99.90
11264;DHT22;5689;48.798;9.070;2022-10-15T08:23:27;15.40;99.90
11264;DHT22;5689;48.798;9.070;2022-10-15T08:25:56;15.70;99.90
11264;DHT22;5689;48.798;9.070;2022-10-15T08:28:24;15.80;99.90
11264;DHT22;5689;48.798;9.070;2022-10-15T08:30:52;15.90;99.90
11264;DHT22;5689;48.798;9.070;2022-10-15T08:33:21;16.10;99.90
11264;DHT22;5689;48.798;9.070;2022-10-15T08:35:51;16.30;99.90
11264;DHT22;5689;48.798;9.070;2022-10-15T08:38:19;16.40;99.90
11264;DHT22;5689;48.798;9.070;2022-10-15T08:40:48;16.50;99.90
11264;DHT22;5689;48.798;9.070;2022-10-15T08:43:20;16.60;99.90
11264;DHT22;5689;48.798;9.070;2022-10-15T08:45:52;16.60;99.90
11264;DHT22;5689;48.798;9.070;2022-10-15T08:48:27;16.50;99.90
11264;DHT22;5689;48.798;9.070;2022-10-15T08:51:02;16.40;99.90
11264;DHT22;5689;48.798;9.070;2022-10-15T08:53:37;16.40;99.90
11264;DHT22;5689;48.798;9.070;2022-10-15T08:56:13;16.40;99.90
11264;DHT22;5689;48.798;9.070;2022-10-15T08:58:46;16.40;99.90
11264;DHT22;5689;48.798;9.070;2022-10-15T09:01:20;16.50;99.90
11264;DHT22;5689;48.798;9.070;2022-10-15T09:04:00;16.50;99.90
11264;DHT22;5689;48.798;9.070;2022-10-15T09:06:35;16.60;99.90
11264;DHT22;5689;48.798;9.070;2022-10-15T09:09:08;16.60;99.90
11264;DHT22;5689;48.798;9.070;2022-10-15T09:11:46;16.60;99.90
11264;DHT22;5689;48.798;9.070;2022-10-15T09:14:20;16.70;99.90
11264;DHT22;5689;48.798;9.070;2022-10-15T09:16:49;16.60;99.90
11264;DHT22;5689;48.798;9.070;2022-10-15T09:19:19;16.70;99.90
11264;DHT22;5689;48.798;9.070;2022-10-15T09:21:50;16.70;99.90
11264;DHT22;5689;48.798;9.070;2022-10-15T09:24:21;16.80;99.90
11264;DHT22;5689;48.798;9.070;2022-10-15T09:27:01;16.60;99.90
11264;DHT22;5689;48.798;9.070;2022-10-15T09:29:36;16.50;99.90
11264;DHT22;5689;48.798;9.070;2022-10-15T09:32:14;16.60;99.90
11264;DHT22;5689;48.798;9.070;2022-10-15T09:34:50;16.80;99.90
11264;DHT22;5689;48.798;9.070;2022-10-15T09:37:25;17.10;99.90
11264;DHT22;5689;48.798;9.070;2022-10-15T09:40:21;17.20;99.90
11264;DHT22;5689;48.798;9.070;2022-10-15T09:42:55;17.30;99.90
11264;DHT22;5689;48.798;9.070;2022-10-15T09:45:24;17.50;99.90
11264;DHT22;5689;48.798;9.070;2022-10-15T09:47:56;17.60;99.90
11264;DHT22;5689;48.798;9.070;2022-10-15T09:50:29;18.20;99.90
11264;DHT22;5689;48.798;9.070;2022-10-15T09:53:11;19.70;99.90
11264;DHT22;5689;48.798;9.070;2022-10-15T09:55:47;22.10;99.90
11264;DHT22;5689;48.798;9.070;2022-10-15T09:58:24;22.60;99.90
11264;DHT22;5689;48.798;9.070;2022-10-15T10:00:58;22.70;99.90
11264;DHT22;5689;48.798;9.070;2022-10-15T10:03:34;21.30;99.90
11264;DHT22;5689;48.798;9.070;2022-10-15T10:06:05;20.30;99.90
11264;DHT22;5689;48.798;9.070;2022-10-15T10:08:40;19.90;99.90
11264;DHT22;5689;48.798;9.070;2022-10-15T10:11:19;19.40;99.90
11264;DHT22;5689;48.798;9.070;2022-10-15T10:13:53;20.20;99.90
11264;DHT22;5689;48.798;9.070;2022-10-15T10:16:22;20.10;99.90
11264;DHT22;5689;48.798;9.070;2022-10-15T10:19:10;19.80;99.90
11264;DHT22;5689;48.798;9.070;2022-10-15T10:21:40;20.00;99.90
11264;DHT22;5689;48.798;9.070;2022-10-15T10:24:26;19.90;99.90
11264;DHT22;5689;48.798;9.070;2022-10-15T10:26:57;19.50;99.90
11264;DHT22;5689;48.798;9.070;2022-10-15T10:29:26;19.40;99.90
11264;DHT22;5689;48.798;9.070;2022-10-15T10:31:59;19.50;99.90
11264;DHT22;5689;48.798;9.070;2022-10-15T10:34:30;19.10;99.90
11264;DHT22;5689;48.798;9.070;2022-10-15T10:37:02;18.80;99.90
11264;DHT22;5689;48.798;9.070;2022-10-15T10:39:32;18.90;99.90
11264;DHT22;5689;48.798;9.070;2022-10-15T10:42:04;19.20;99.90
11264;DHT22;5689;48.798;9.070;2022-10-15T10:44:34;19.20;99.90
11264;DHT22;5689;48.798;9.070;2022-10-15T10:47:08;19.60;99.90
11264;DHT22;5689;48.798;9.070;2022-10-15T10:49:39;20.30;99.90
11264;DHT22;5689;48.798;9.070;2022-10-15T10:52:22;20.60;99.90
11264;DHT22;5689;48.798;9.070;2022-10-15T10:54:57;20.60;99.90
11264;DHT22;5689;48.798;9.070;2022-10-15T10:57:34;20.90;99.90
11264;DHT22;5689;48.798;9.070;2022-10-15T11:00:07;20.50;99.90
11264;DHT22;5689;48.798;9.070;2022-10-15T11:02:40;19.90;99.90
11264;DHT22;5689;48.798;9.070;2022-10-15T11:05:10;20.60;99.90
11264;DHT22;5689;48.798;9.070;2022-10-15T11:07:45;22.30;99.90
11264;DHT22;5689;48.798;9.070;2022-10-15T11:10:22;24.00;99.90
11264;DHT22;5689;48.798;9.070;2022-10-15T11:13:04;24.30;99.90
11264;DHT22;5689;48.798;9.070;2022-10-15T11:15:43;23.50;99.90
11264;DHT22;5689;48.798;9.070;2022-10-15T11:18:27;23.90;99.90
11264;DHT22;5689;48.798;9.070;2022-10-15T11:21:05;23.80;99.90
11264;DHT22;5689;48.798;9.070;2022-10-15T11:23:50;25.00;99.90
11264;DHT22;5689;48.798;9.070;2022-10-15T11:26:33;24.30;99.90
11264;DHT22;5689;48.798;9.070;2022-10-15T11:29:26;23.00;99.90
11264;DHT22;5689;48.798;9.070;2022-10-15T11:32:03;23.00;99.90
11264;DHT22;5689;48.798;9.070;2022-10-15T11:34:51;22.50;99.90
11264;DHT22;5689;48.798;9.070;2022-10-15T11:37:35;21.80;99.90
11264;DHT22;5689;48.798;9.070;2022-10-15T11:40:13;21.60;99.90
11264;DHT22;5689;48.798;9.070;2022-10-15T11:42:53;21.30;99.90
11264;DHT22;5689;48.798;9.070;2022-10-15T11:45:45;21.00;99.90
11264;DHT22;5689;48.798;9.070;2022-10-15T11:48:21;21.30;99.90
11264;DHT22;5689;48.798;9.070;2022-10-15T11:50:56;21.40;99.90
11264;DHT22;5689;48.798;9.070;2022-10-15T11:53:50;23.30;99.90
11264;DHT22;5689;48.798;9.070;2022-10-15T11:56:22;25.40;99.90
11264;DHT22;5689;48.798;9.070;2022-10-15T11:58:57;27.40;99.90
11264;DHT22;5689;48.798;9.070;2022-10-15T12:01:31;28.50;99.10
11264;DHT22;5689;48.798;9.070;2022-10-15T12:04:08;29.00;95.50
11264;DHT22;5689;48.798;9.070;2022-10-15T12:06:41;26.50;98.00
11264;DHT22;5689;48.798;9.070;2022-10-15T12:09:11;24.10;99.90
11264;DHT22;5689;48.798;9.070;2022-10-15T12:11:47;22.60;99.90
11264;DHT22;5689;48.798;9.070;2022-10-15T12:14:22;21.30;99.90
11264;DHT22;5689;48.798;9.070;2022-10-15T12:16:58;20.90;99.90
11264;DHT22;5689;48.798;9.070;2022-10-15T12:19:36;20.60;99.90
11264;DHT22;5689;48.798;9.070;2022-10-15T12:22:08;20.60;99.90
11264;DHT22;5689;48.798;9.070;2022-10-15T12:24:51;20.50;99.90
11264;DHT22;5689;48.798;9.070;2022-10-15T12:27:30;20.30;99.90
11264;DHT22;5689;48.798;9.070;2022-10-15T12:30:20;20.30;99.90
11264;DHT22;5689;48.798;9.070;2022-10-15T12:32:51;20.10;99.90
11264;DHT22;5689;48.798;9.070;2022-10-15T12:35:36;19.80;99.90
11264;DHT22;5689;48.798;9.070;2022-10-15T12:38:19;19.50;99.90
11264;DHT22;5689;48.798;9.070;2022-10-15T12:40:56;18.80;99.90
11264;DHT22;5689;48.798;9.070;2022-10-15T12:43:27;18.20;99.90
11264;DHT22;5689;48.798;9.070;2022-10-15T12:45:59;17.80;99.90
11264;DHT22;5689;48.798;9.070;2022-10-15T12:48:31;17.70;99.90
11264;DHT22;5689;48.798;9.070;2022-10-15T12:54:39;17.80;99.90
11264;DHT22;5689;48.798;9.070;2022-10-15T13:00:28;17.80;99.90
11264;DHT22;5689;48.798;9.070;2022-10-15T13:03:08;18.00;99.90
11264;DHT22;5689;48.798;9.070;2022-10-15T13:05:37;18.10;99.90
11264;DHT22;5689;48.798;9.070;2022-10-15T13:08:12;18.20;99.90
11264;DHT22;5689;48.798;9.070;2022-10-15T13:10:47;18.20;99.90
11264;DHT22;5689;48.798;9.070;2022-10-15T13:13:19;18.10;99.90
11264;DHT22;5689;48.798;9.070;2022-10-15T13:15:55;17.70;99.90
11264;DHT22;5689;48.798;9.070;2022-10-15T13:18:28;17.60;99.90
11264;DHT22;5689;48.798;9.070;2022-10-15T13:20:57;17.40;99.90
11264;DHT22;5689;48.798;9.070;2022-10-15T13:23:27;17.10;99.90
11264;DHT22;5689;48.798;9.070;2022-10-15T13:26:19;16.80;99.90
11264;DHT22;5689;48.798;9.070;2022-10-15T13:28:49;16.60;99.90
11264;DHT22;5689;48.798;9.070;2022-10-15T13:31:21;16.60;99.90
11264;DHT22;5689;48.798;9.070;2022-10-15T13:33:53;16.60;99.90
11264;DHT22;5689;48.798;9.070;2022-10-15T13:36:24;16.70;99.90
11264;DHT22;5689;48.798;9.070;2022-10-15T13:38:56;16.70;99.90
11264;DHT22;5689;48.798;9.070;2022-10-15T13:41:26;16.70;99.90
11264;DHT22;5689;48.798;9.070;2022-10-15T13:43:57;16.80;99.90
11264;DHT22;5689;48.798;9.070;2022-10-15T13:46:29;16.90;99.90
11264;DHT22;5689;48.798;9.070;2022-10-15T13:49:01;16.90;99.90
11264;DHT22;5689;48.798;9.070;2022-10-15T13:51:36;16.70;99.90
11264;DHT22;5689;48.798;9.070;2022-10-15T13:54:08;16.60;99.90
11264;DHT22;5689;48.798;9.070;2022-10-15T13:56:41;16.50;99.90
11264;DHT22;5689;48.798;9.070;2022-10-15T13:59:15;16.60;99.90
11264;DHT22;5689;48.798;9.070;2022-10-15T14:01:45;16.60;99.90
11264;DHT22;5689;48.798;9.070;2022-10-15T14:04:17;16.60;99.90
11264;DHT22;5689;48.798;9.070;2022-10-15T14:06:52;16.60;99.90
11264;DHT22;5689;48.798;9.070;2022-10-15T14:09:26;16.60;99.90
11264;DHT22;5689;48.798;9.070;2022-10-15T14:11:56;16.50;99.90
11264;DHT22;5689;48.798;9.070;2022-10-15T14:14:30;16.50;99.90
11264;DHT22;5689;48.798;9.070;2022-10-15T14:16:59;16.40;99.90
11264;DHT22;5689;48.798;9.070;2022-10-15T14:19:29;16.40;99.90
11264;DHT22;5689;48.798;9.070;2022-10-15T14:21:59;16.40;99.90
11264;DHT22;5689;48.798;9.070;2022-10-15T14:24:31;16.40;99.90
11264;DHT22;5689;48.798;9.070;2022-10-15T14:27:05;16.40;99.90
11264;DHT22;5689;48.798;9.070;2022-10-15T14:29:36;16.40;99.90
11264;DHT22;5689;48.798;9.070;2022-10-15T14:32:22;16.40;99.90
11264;DHT22;5689;48.798;9.070;2022-10-15T14:34:53;16.50;99.90
11264;DHT22;5689;48.798;9.070;2022-10-15T14:37:37;16.50;99.90
11264;DHT22;5689;48.798;9.070;2022-10-15T14:40:17;16.60;99.90
11264;DHT22;5689;48.798;9.070;2022-10-15T14:42:48;16.70;99.90
11264;DHT22;5689;48.798;9.070;2022-10-15T14:45:28;16.80;99.90
11264;DHT22;5689;48.798;9.070;2022-10-15T14:47:59;16.90;99.90
11264;DHT22;5689;48.798;9.070;2022-10-15T14:50:31;17.10;99.90
11264;DHT22;5689;48.798;9.070;2022-10-15T14:53:04;17.30;99.90
11264;DHT22;5689;48.798;9.070;2022-10-15T14:55:35;17.50;99.90
11264;DHT22;5689;48.798;9.070;2022-10-15T14:58:07;17.60;99.90
11264;DHT22;5689;48.798;9.070;2022-10-15T15:00:40;17.70;99.90
11264;DHT22;5689;48.798;9.070;2022-10-15T15:03:13;17.70;99.90
11264;DHT22;5689;48.798;9.070;2022-10-15T15:05:47;17.80;99.90
11264;DHT22;5689;48.798;9.070;2022-10-15T15:08:15;17.80;99.90
11264;DHT22;5689;48.798;9.070;2022-10-15T15:10:44;17.90;99.90
11264;DHT22;5689;48.798;9.070;2022-10-15T15:13:19;17.80;99.90
11264;DHT22;5689;48.798;9.070;2022-10-15T15:15:48;18.00;99.90
11264;DHT22;5689;48.798;9.070;2022-10-15T15:18:16;18.10;99.90
11264;DHT22;5689;48.798;9.070;2022-10-15T15:20:46;18.00;99.90
11264;DHT22;5689;48.798;9.070;2022-10-15T15:23:17;18.00;99.90
11264;DHT22;5689;48.798;9.070;2022-10-15T15:25:46;18.60;99.90
11264;DHT22;5689;48.798;9.070;2022-10-15T15:28:16;18.80;99.90
11264;DHT22;5689;48.798;9.070;2022-10-15T15:30:50;18.90;99.90
11264;DHT22;5689;48.798;9.070;2022-10-15T15:33:21;19.00;99.90
11264;DHT22;5689;48.798;9.070;2022-10-15T15:35:52;19.40;99.90
11264;DHT22;5689;48.798;9.070;2022-10-15T15:38:22;19.50;99.90
11264;DHT22;5689;48.798;9.070;2022-10-15T15:41:00;19.50;99.90
11264;DHT22;5689;48.798;9.070;2022-10-15T15:43:30;19.60;99.90
11264;DHT22;5689;48.798;9.070;2022-10-15T15:45:58;19.40;99.90
11264;DHT22;5689;48.798;9.070;2022-10-15T15:48:26;19.20;99.90
11264;DHT22;5689;48.798;9.070;2022-10-15T15:50:58;18.70;99.90
11264;DHT22;5689;48.798;9.070;2022-10-15T15:53:27;19.40;99.90
11264;DHT22;5689;48.798;9.070;2022-10-15T15:55:56;20.20;99.90
11264;DHT22;5689;48.798;9.070;2022-10-15T15:58:24;20.70;99.90
11264;DHT22;5689;48.798;9.070;2022-10-15T16:00:52;20.10;99.90
11264;DHT22;5689;48.798;9.070;2022-10-15T16:03:20;19.00;99.90
11264;DHT22;5689;48.798;9.070;2022-10-15T16:05:48;18.30;99.90
11264;DHT22;5689;48.798;9.070;2022-10-15T16:08:23;18.10;99.90
11264;DHT22;5689;48.798;9.070;2022-10-15T16:10:51;17.80;99.90
11264;DHT22;5689;48.798;9.070;2022-10-15T16:13:19;17.70;99.90
11264;DHT22;5689;48.798;9.070;2022-10-15T16:15:47;17.60;99.90
11264;DHT22;5689;48.798;9.070;2022-10-15T16:18:15;17.50;99.90
11264;DHT22;5689;48.798;9.070;2022-10-15T16:20:43;17.40;99.90
11264;DHT22;5689;48.798;9.070;2022-10-15T16:23:13;17.40;99.90
11264;DHT22;5689;48.798;9.070;2022-10-15T16:25:43;17.30;99.90